createdAt,value
2023-04-26T00:01:11.452Z,101058.75
2023-04-26T00:03:40.539Z,101082.63
2023-04-26T00:06:09.859Z,101075.81
2023-04-26T00:08:36.632Z,101081.38
2023-04-26T00:11:03.270Z,101079.19
2023-04-26T00:13:29.801Z,101085.69
2023-04-26T00:15:56.325Z,101090.09
2023-04-26T00:18:23.149Z,101090.44
2023-04-26T00:20:49.616Z,101087.63
2023-04-26T00:23:17.327Z,101082.69
2023-04-26T00:25:44.151Z,101084.75
2023-04-26T00:28:10.806Z,101095.09
2023-04-26T00:30:41.200Z,101090.53
2023-04-26T00:33:07.962Z,101087.81
2023-04-26T00:35:34.439Z,101088.78
2023-04-26T00:38:01.015Z,101089.88
2023-04-26T00:40:27.537Z,101086.66
2023-04-26T00:42:58.215Z,101085.09
2023-04-26T00:45:24.735Z,101071.00
2023-04-26T00:47:51.516Z,101085.56
2023-04-26T00:50:18.238Z,101077.63
2023-04-26T00:52:46.033Z,101076.69
2023-04-26T00:55:13.083Z,101081.13
2023-04-26T00:57:39.999Z,101072.25
2023-04-26T01:00:10.856Z,101067.06
2023-04-26T01:02:38.515Z,101069.47
2023-04-26T01:05:06.336Z,100996.03
2023-04-26T01:07:33.412Z,101038.72
2023-04-26T01:10:00.056Z,101070.81
2023-04-26T01:12:26.929Z,101028.53
2023-04-26T01:14:53.833Z,100932.47
2023-04-26T01:17:20.770Z,101076.47
2023-04-26T01:19:48.880Z,101060.97
2023-04-26T01:22:16.256Z,101080.72
2023-04-26T01:24:46.131Z,101079.28
2023-04-26T01:27:12.988Z,101076.31
2023-04-26T01:29:39.700Z,101083.19
2023-04-26T01:32:06.274Z,101044.81
2023-04-26T01:34:34.459Z,101071.78
2023-04-26T01:37:01.562Z,101082.53
2023-04-26T01:39:28.044Z,101058.59
2023-04-26T01:41:54.591Z,101021.72
2023-04-26T01:44:21.029Z,101019.63
2023-04-26T01:46:47.531Z,101047.50
2023-04-26T01:49:14.025Z,101084.47
2023-04-26T01:51:40.541Z,101076.16
2023-04-26T01:54:07.334Z,101018.06
2023-04-26T01:56:33.834Z,101045.09
2023-04-26T01:59:00.541Z,101083.28
2023-04-26T02:01:27.242Z,101080.53
2023-04-26T02:03:53.851Z,101077.41
2023-04-26T02:06:21.534Z,101054.63
2023-04-26T02:08:48.095Z,101071.81
2023-04-26T02:11:14.695Z,101093.97
2023-04-26T02:13:41.226Z,101033.28
2023-04-26T02:16:07.899Z,101079.38
2023-04-26T02:18:34.734Z,101062.75
2023-04-26T02:21:01.545Z,101082.25
2023-04-26T02:23:28.002Z,101098.75
2023-04-26T02:25:54.678Z,101086.75
2023-04-26T02:28:21.255Z,101088.97
2023-04-26T02:30:47.768Z,101059.81
2023-04-26T02:33:14.215Z,101064.91
2023-04-26T02:35:40.763Z,101051.31
2023-04-26T02:38:07.387Z,101046.50
2023-04-26T02:40:33.977Z,101050.59
2023-04-26T02:43:00.517Z,101053.88
2023-04-26T02:45:27.206Z,101078.69
2023-04-26T02:47:53.746Z,101064.34
2023-04-26T02:50:20.317Z,101049.09
2023-04-26T02:52:46.804Z,101056.06
2023-04-26T02:55:13.391Z,101033.84
2023-04-26T02:57:39.891Z,101069.69
2023-04-26T03:00:07.979Z,101054.19
2023-04-26T03:02:34.678Z,101087.25
2023-04-26T03:05:02.217Z,101045.75
2023-04-26T03:07:28.719Z,101061.78
2023-04-26T03:09:55.297Z,101028.16
2023-04-26T03:12:21.753Z,101057.59
2023-04-26T03:14:48.315Z,101053.34
2023-04-26T03:17:14.774Z,101063.38
2023-04-26T03:19:41.300Z,100977.06
2023-04-26T03:22:07.808Z,101082.94
2023-04-26T03:24:34.278Z,101080.50
2023-04-26T03:27:00.759Z,101065.91
2023-04-26T03:29:27.179Z,101080.03
2023-04-26T03:31:53.698Z,101038.22
2023-04-26T03:34:20.150Z,101078.69
2023-04-26T03:36:46.998Z,101072.06
2023-04-26T03:39:13.686Z,101033.38
2023-04-26T03:41:40.473Z,101000.94
2023-04-26T03:44:07.129Z,101043.63
2023-04-26T03:46:33.936Z,101045.53
2023-04-26T03:49:00.520Z,101047.19
2023-04-26T03:51:28.229Z,101046.09
2023-04-26T03:53:55.124Z,101026.34
2023-04-26T03:56:21.967Z,101062.88
2023-04-26T03:58:48.386Z,101007.38
2023-04-26T04:01:15.647Z,101052.78
2023-04-26T04:03:42.230Z,101043.03
2023-04-26T04:06:09.152Z,101022.50
2023-04-26T04:08:35.599Z,101041.13
2023-04-26T04:11:02.359Z,101009.25
2023-04-26T04:13:28.898Z,101076.31
2023-04-26T04:15:55.733Z,101075.78
2023-04-26T04:18:22.193Z,100996.75
2023-04-26T04:20:48.994Z,101081.09
2023-04-26T04:23:15.658Z,101066.50
2023-04-26T04:25:42.296Z,101067.56
2023-04-26T04:28:08.805Z,101048.91
2023-04-26T04:30:35.606Z,101062.28
2023-04-26T04:33:03.095Z,101074.53
2023-04-26T04:35:33.602Z,101078.34
2023-04-26T04:38:00.649Z,101084.22
2023-04-26T04:40:27.848Z,101081.75
2023-04-26T04:42:55.359Z,101081.16
2023-04-26T04:45:22.154Z,101081.34
2023-04-26T04:47:48.766Z,101073.59
2023-04-26T04:50:15.934Z,101041.53
2023-04-26T04:52:42.554Z,101065.41
2023-04-26T04:55:09.864Z,101099.38
2023-04-26T04:57:36.351Z,101089.56
2023-04-26T05:00:10.209Z,101085.84
2023-04-26T05:02:37.370Z,101099.53
2023-04-26T05:05:05.077Z,101076.47
2023-04-26T05:07:32.453Z,101057.75
2023-04-26T05:09:59.678Z,101098.00
2023-04-26T05:12:26.537Z,101086.19
2023-04-26T05:14:53.263Z,101059.78
2023-04-26T05:17:22.658Z,101070.84
2023-04-26T05:19:49.187Z,101064.19
2023-04-26T05:22:21.279Z,101101.97
2023-04-26T05:24:51.383Z,101091.25
2023-04-26T05:27:17.854Z,101107.06
2023-04-26T05:29:44.424Z,101095.13
2023-04-26T05:32:10.959Z,101101.53
2023-04-26T05:34:38.585Z,101096.97
2023-04-26T05:37:05.039Z,101100.75
2023-04-26T05:39:31.868Z,101102.31
2023-04-26T05:41:58.433Z,101091.78
2023-04-26T05:44:24.887Z,101078.47
2023-04-26T05:46:51.545Z,101111.88
2023-04-26T05:49:18.064Z,101127.50
2023-04-26T05:51:44.714Z,101125.50
2023-04-26T05:54:11.334Z,101081.25
2023-04-26T05:56:37.799Z,101140.47
2023-04-26T05:59:04.264Z,101075.03
2023-04-26T06:01:31.187Z,101113.94
2023-04-26T06:04:00.513Z,101119.72
2023-04-26T06:06:28.295Z,101104.63
2023-04-26T06:08:55.041Z,101105.16
2023-04-26T06:11:21.817Z,101149.16
2023-04-26T06:13:48.416Z,101098.78
2023-04-26T06:16:15.279Z,101153.31
2023-04-26T06:18:43.099Z,101144.03
2023-04-26T06:21:19.155Z,101151.22
2023-04-26T06:23:46.695Z,101148.59
2023-04-26T06:26:13.479Z,101135.97
2023-04-26T06:28:42.217Z,101161.44
2023-04-26T06:31:08.937Z,101154.97
2023-04-26T06:33:35.794Z,101102.50
2023-04-26T06:36:02.558Z,101151.44
2023-04-26T06:38:29.359Z,101162.69
2023-04-26T06:40:55.815Z,101157.78
2023-04-26T06:43:22.511Z,101155.94
2023-04-26T06:45:49.409Z,101158.81
2023-04-26T06:48:16.078Z,101147.66
2023-04-26T06:50:42.651Z,101147.91
2023-04-26T06:53:09.560Z,101161.34
2023-04-26T06:55:36.107Z,101160.88
2023-04-26T06:58:02.958Z,101158.84
2023-04-26T07:00:30.085Z,101140.81
2023-04-26T07:02:57.125Z,101111.97
2023-04-26T07:05:24.157Z,101112.81
2023-04-26T07:07:50.788Z,101158.53
2023-04-26T07:10:17.452Z,101162.84
2023-04-26T07:12:44.255Z,101130.94
2023-04-26T07:15:11.508Z,101159.41
2023-04-26T07:17:38.059Z,101134.13
2023-04-26T07:20:05.785Z,101109.78
2023-04-26T07:22:32.253Z,101147.56
2023-04-26T07:24:58.721Z,101157.47
2023-04-26T07:27:25.295Z,101158.28
2023-04-26T07:29:56.027Z,101154.09
2023-04-26T07:32:22.617Z,101132.25
2023-04-26T07:34:49.403Z,101150.88
2023-04-26T07:37:16.058Z,101139.38
2023-04-26T07:39:43.054Z,101145.19
2023-04-26T07:42:10.596Z,101143.28
2023-04-26T07:44:37.108Z,101155.75
2023-04-26T07:47:03.586Z,101151.75
2023-04-26T07:49:30.126Z,101119.06
2023-04-26T07:51:58.124Z,101105.91
2023-04-26T07:54:24.591Z,101148.69
2023-04-26T07:56:51.152Z,101133.75
2023-04-26T07:59:17.765Z,101144.63
2023-04-26T08:01:44.348Z,101148.06
2023-04-26T08:04:11.011Z,101130.19
2023-04-26T08:06:38.840Z,101129.41
2023-04-26T08:09:05.474Z,101148.84
2023-04-26T08:11:32.665Z,101144.00
2023-04-26T08:13:59.333Z,101136.78
2023-04-26T08:16:25.892Z,101110.63
2023-04-26T08:18:52.556Z,101148.63
2023-04-26T08:21:19.139Z,101161.28
2023-04-26T08:23:45.867Z,101050.00
2023-04-26T08:26:12.462Z,101141.06
2023-04-26T08:28:39.891Z,101140.59
2023-04-26T08:31:06.629Z,101134.69
2023-04-26T08:33:33.433Z,101117.13
2023-04-26T08:36:01.368Z,101118.91
2023-04-26T08:38:29.514Z,101121.72
2023-04-26T08:40:59.224Z,101142.72
2023-04-26T08:43:27.473Z,101152.59
2023-04-26T08:45:54.916Z,101141.56
2023-04-26T08:48:21.868Z,101129.88
2023-04-26T08:50:48.429Z,101144.22
2023-04-26T08:53:18.849Z,101109.06
2023-04-26T08:55:51.537Z,101134.09
2023-04-26T08:58:18.930Z,101122.94
2023-04-26T09:00:46.275Z,101131.97
2023-04-26T09:03:13.307Z,101141.03
2023-04-26T09:05:44.296Z,101072.69
2023-04-26T09:08:16.699Z,101137.31
2023-04-26T09:10:43.290Z,101081.28
2023-04-26T09:13:09.882Z,101134.59
2023-04-26T09:15:36.799Z,101133.81
2023-04-26T09:18:20.622Z,101134.75
2023-04-26T09:21:02.208Z,101120.25
2023-04-26T09:23:28.819Z,101134.19
2023-04-26T09:25:55.571Z,101146.66
2023-04-26T09:28:23.342Z,101142.44
2023-04-26T09:30:50.113Z,101103.19
2023-04-26T09:33:16.840Z,101153.59
2023-04-26T09:35:43.930Z,101134.06
2023-04-26T09:38:13.578Z,101138.25
2023-04-26T09:40:49.115Z,101132.50
2023-04-26T09:43:19.675Z,101146.03
2023-04-26T09:45:50.978Z,101135.59
2023-04-26T09:48:26.189Z,101136.19
2023-04-26T09:50:54.708Z,101138.66
2023-04-26T09:53:46.338Z,101149.16
2023-04-26T09:56:14.680Z,101147.25
2023-04-26T09:58:47.583Z,101141.53
2023-04-26T10:01:19.208Z,101145.28
2023-04-26T10:03:46.677Z,101150.56
2023-04-26T10:06:13.908Z,101093.13
2023-04-26T10:08:40.797Z,101132.44
2023-04-26T10:11:07.938Z,101110.97
2023-04-26T10:13:34.872Z,101125.81
2023-04-26T10:16:04.793Z,101095.75
2023-04-26T10:18:32.042Z,101106.81
2023-04-26T10:21:01.297Z,101117.91
2023-04-26T10:23:28.843Z,101114.66
2023-04-26T10:25:56.357Z,101087.97
2023-04-26T10:28:45.880Z,101115.31
2023-04-26T10:31:12.621Z,101124.19
2023-04-26T10:33:39.151Z,101091.13
2023-04-26T10:36:11.099Z,101102.25
2023-04-26T10:38:39.681Z,101119.13
2023-04-26T10:41:30.138Z,101108.09
2023-04-26T10:43:57.030Z,101090.25
2023-04-26T10:46:35.258Z,101076.06
2023-04-26T10:49:25.677Z,101101.41
2023-04-26T10:52:12.736Z,101104.38
2023-04-26T10:54:50.865Z,101103.94
2023-04-26T10:57:17.504Z,101090.06
2023-04-26T11:00:10.355Z,101105.84
2023-04-26T11:02:53.395Z,101109.91
2023-04-26T11:05:33.080Z,101086.94
2023-04-26T11:08:07.710Z,101111.44
2023-04-26T11:10:37.318Z,101124.09
2023-04-26T11:13:04.464Z,101130.03
2023-04-26T11:15:31.523Z,101107.88
2023-04-26T11:17:58.670Z,101112.25
2023-04-26T11:20:32.697Z,101107.47
2023-04-26T11:22:59.661Z,101088.38
2023-04-26T11:25:30.586Z,101114.38
2023-04-26T11:27:59.075Z,101093.84
2023-04-26T11:30:25.699Z,101072.06
2023-04-26T11:32:52.578Z,101066.25
2023-04-26T11:35:22.146Z,101087.91
2023-04-26T11:37:51.981Z,101083.25
2023-04-26T11:40:18.953Z,101088.38
2023-04-26T11:42:46.775Z,101102.97
2023-04-26T11:45:16.443Z,101118.09
2023-04-26T11:47:44.177Z,101107.19
2023-04-26T11:50:11.274Z,101119.50
2023-04-26T11:52:38.005Z,101081.09
2023-04-26T11:55:06.285Z,101078.41
2023-04-26T11:57:34.833Z,101080.59
2023-04-26T12:00:12.184Z,101118.66
2023-04-26T12:02:38.978Z,101099.72
2023-04-26T12:05:08.064Z,101107.06
2023-04-26T12:07:37.196Z,101083.31
2023-04-26T12:10:21.459Z,101074.50
2023-04-26T12:12:49.867Z,101087.97
2023-04-26T12:15:17.496Z,101094.22
2023-04-26T12:17:57.085Z,101096.47
2023-04-26T12:20:27.923Z,101101.88
2023-04-26T12:23:08.261Z,101090.91
2023-04-26T12:25:36.179Z,101081.66
2023-04-26T12:28:11.963Z,101092.94
2023-04-26T12:30:39.855Z,101042.28
2023-04-26T12:33:16.538Z,101078.34
2023-04-26T12:35:44.475Z,101061.75
2023-04-26T12:38:12.276Z,101054.72
2023-04-26T12:40:39.263Z,101095.91
2023-04-26T12:43:05.944Z,101079.56
2023-04-26T12:45:32.589Z,101068.56
2023-04-26T12:47:59.182Z,101053.50
2023-04-26T12:50:26.098Z,101103.13
2023-04-26T12:52:52.704Z,101095.50
2023-04-26T12:55:20.663Z,101088.97
2023-04-26T12:57:47.250Z,101117.28
2023-04-26T13:00:17.802Z,101096.06
2023-04-26T13:02:44.555Z,101088.69
2023-04-26T13:05:11.762Z,101079.06
2023-04-26T13:07:40.540Z,101091.69
2023-04-26T13:10:09.184Z,101099.63
2023-04-26T13:12:38.649Z,101077.50
2023-04-26T13:15:06.892Z,101109.59
2023-04-26T13:17:34.618Z,101100.97
2023-04-26T13:20:01.152Z,101067.72
2023-04-26T13:22:28.037Z,101108.53
2023-04-26T13:24:54.482Z,101079.97
2023-04-26T13:27:21.085Z,101099.72
2023-04-26T13:29:47.589Z,101105.75
2023-04-26T13:32:14.205Z,101079.31
2023-04-26T13:34:40.797Z,101077.19
2023-04-26T13:37:07.595Z,101095.53
2023-04-26T13:39:34.064Z,101091.69
2023-04-26T13:42:01.935Z,101089.38
2023-04-26T13:44:28.545Z,101090.28
2023-04-26T13:46:56.421Z,101096.56
2023-04-26T13:49:26.111Z,101098.09
2023-04-26T13:51:53.678Z,101099.44
2023-04-26T13:54:22.319Z,101101.69
2023-04-26T13:56:49.102Z,101061.84
2023-04-26T13:59:15.667Z,101091.38
2023-04-26T14:01:42.239Z,101085.81
2023-04-26T14:04:08.989Z,101100.00
2023-04-26T14:06:36.036Z,101101.50
2023-04-26T14:09:05.517Z,101101.75
2023-04-26T14:11:32.195Z,101101.38
2023-04-26T14:13:59.154Z,101074.38
2023-04-26T14:16:26.781Z,101070.97
2023-04-26T14:18:54.263Z,101093.31
2023-04-26T14:21:20.939Z,101088.56
2023-04-26T14:23:48.243Z,101063.41
2023-04-26T14:26:16.519Z,101084.19
2023-04-26T14:28:43.049Z,101059.84
2023-04-26T14:31:10.887Z,101083.06
2023-04-26T14:33:37.765Z,101072.81
2023-04-26T14:36:05.144Z,101067.41
2023-04-26T14:38:32.953Z,101072.97
2023-04-26T14:40:59.960Z,101060.88
2023-04-26T14:43:26.632Z,101079.28
2023-04-26T14:45:53.346Z,101083.69
2023-04-26T14:48:20.267Z,101068.31
2023-04-26T14:50:47.428Z,101083.78
2023-04-26T14:53:14.655Z,101059.16
2023-04-26T14:55:41.221Z,101079.00
2023-04-26T14:58:08.062Z,101074.78
2023-04-26T15:00:34.930Z,101035.84
2023-04-26T15:03:02.107Z,101073.06
2023-04-26T15:05:29.252Z,101083.41
2023-04-26T15:07:56.838Z,101068.06
2023-04-26T15:10:23.596Z,101048.44
2023-04-26T15:12:50.312Z,101033.38
2023-04-26T15:15:17.321Z,101073.56
2023-04-26T15:17:44.118Z,101070.44
2023-04-26T15:20:11.349Z,101023.75
2023-04-26T15:22:39.133Z,100947.25
2023-04-26T15:25:06.596Z,101064.06
2023-04-26T15:27:36.471Z,101072.69
2023-04-26T15:30:04.603Z,101042.56
2023-04-26T15:32:31.622Z,101068.41
2023-04-26T15:34:58.644Z,101063.06
2023-04-26T15:37:25.210Z,101064.44
2023-04-26T15:39:52.292Z,101050.81
2023-04-26T15:42:18.853Z,101025.47
2023-04-26T15:44:45.629Z,101070.50
2023-04-26T15:47:12.203Z,101053.66
2023-04-26T15:49:38.917Z,101047.00
2023-04-26T15:52:05.410Z,101058.00
2023-04-26T15:54:31.936Z,101033.66
2023-04-26T15:56:58.473Z,101021.06
2023-04-26T15:59:25.313Z,101057.84
2023-04-26T16:01:51.919Z,101065.13
2023-04-26T16:04:18.683Z,101064.84
2023-04-26T16:06:45.392Z,101050.06
2023-04-26T16:09:24.655Z,101061.84
2023-04-26T16:11:52.593Z,101017.34
2023-04-26T16:14:19.179Z,101080.19
2023-04-26T16:16:46.115Z,101066.75
2023-04-26T16:19:13.414Z,101054.25
2023-04-26T16:21:40.786Z,101054.88
2023-04-26T16:24:09.332Z,101029.50
2023-04-26T16:26:36.379Z,101070.97
2023-04-26T16:29:04.228Z,101060.19
2023-04-26T16:31:32.231Z,101025.09
2023-04-26T16:34:00.216Z,101062.03
2023-04-26T16:36:27.364Z,101047.31
2023-04-26T16:38:54.950Z,101059.63
2023-04-26T16:41:23.130Z,101060.72
2023-04-26T16:43:52.577Z,101068.50
2023-04-26T16:46:19.482Z,101040.88
2023-04-26T16:48:46.450Z,101058.41
2023-04-26T16:51:13.069Z,101074.38
2023-04-26T16:53:39.731Z,101049.97
2023-04-26T16:56:06.608Z,101065.34
2023-04-26T16:58:35.055Z,101046.53
2023-04-26T17:01:02.025Z,101073.91
2023-04-26T17:03:29.097Z,101079.44
2023-04-26T17:05:58.102Z,101079.44
2023-04-26T17:08:26.014Z,101076.38
2023-04-26T17:10:52.906Z,101076.16
2023-04-26T17:13:19.675Z,101037.50
2023-04-26T17:15:47.095Z,101072.53
2023-04-26T17:18:13.789Z,101080.84
2023-04-26T17:20:41.079Z,101078.47
2023-04-26T17:23:08.987Z,101084.06
2023-04-26T17:25:35.727Z,101086.78
2023-04-26T17:28:02.250Z,101057.06
2023-04-26T17:30:29.918Z,101080.06
2023-04-26T17:32:56.728Z,101049.97
2023-04-26T17:35:23.329Z,101077.00
2023-04-26T17:37:50.220Z,101061.03
2023-04-26T17:40:18.238Z,101073.22
2023-04-26T17:42:46.134Z,101077.84
2023-04-26T17:45:14.144Z,101087.59
2023-04-26T17:47:42.413Z,101075.38
2023-04-26T17:50:09.503Z,101076.19
2023-04-26T17:52:36.953Z,101050.19
2023-04-26T17:55:05.943Z,101070.81
2023-04-26T17:57:32.455Z,101088.81
2023-04-26T17:59:59.014Z,100967.16
2023-04-26T18:02:25.724Z,101069.16
2023-04-26T18:04:53.450Z,101087.16
2023-04-26T18:07:20.584Z,101080.56
2023-04-26T18:09:47.079Z,101087.91
2023-04-26T18:12:13.520Z,101074.31
2023-04-26T18:14:44.522Z,101102.41
2023-04-26T18:17:12.773Z,101087.09
2023-04-26T18:19:39.907Z,101098.44
2023-04-26T18:22:07.618Z,101089.34
2023-04-26T18:24:35.358Z,101099.34
2023-04-26T18:27:02.735Z,101072.66
2023-04-26T18:29:29.895Z,101098.03
2023-04-26T18:31:56.967Z,101083.41
2023-04-26T18:34:23.724Z,101080.03
2023-04-26T18:36:50.478Z,101071.41
2023-04-26T18:39:17.083Z,101103.53
2023-04-26T18:41:43.907Z,101113.53
2023-04-26T18:44:13.359Z,101123.19
2023-04-26T18:46:43.415Z,101099.06
2023-04-26T18:49:10.396Z,101094.47
2023-04-26T18:51:36.985Z,101112.94
2023-04-26T18:54:04.022Z,101077.31
2023-04-26T18:56:31.503Z,101105.47
2023-04-26T18:58:58.093Z,101126.03
2023-04-26T19:01:24.799Z,101116.34
2023-04-26T19:03:51.532Z,101126.78
2023-04-26T19:06:18.220Z,101059.03
2023-04-26T19:08:45.006Z,101138.25
2023-04-26T19:11:12.335Z,101131.34
2023-04-26T19:13:40.103Z,101136.66
2023-04-26T19:16:07.519Z,101073.53
2023-04-26T19:18:36.054Z,101132.09
2023-04-26T19:21:04.529Z,101124.38
2023-04-26T19:23:31.845Z,101154.75
2023-04-26T19:26:06.022Z,101151.97
2023-04-26T19:28:32.624Z,101120.13
2023-04-26T19:30:59.500Z,101155.09
2023-04-26T19:33:27.159Z,101153.03
2023-04-26T19:35:53.871Z,101121.69
2023-04-26T19:38:20.334Z,101119.75
2023-04-26T19:40:46.890Z,101154.16
2023-04-26T19:43:13.644Z,101131.03
2023-04-26T19:45:40.992Z,101141.81
2023-04-26T19:48:13.814Z,101119.16
2023-04-26T19:50:41.303Z,101147.94
2023-04-26T19:53:10.011Z,101158.97
2023-04-26T19:55:37.810Z,101134.78
2023-04-26T19:58:05.268Z,101149.28
2023-04-26T20:00:32.045Z,101123.88
2023-04-26T20:03:01.824Z,101120.50
2023-04-26T20:05:28.721Z,101156.56
2023-04-26T20:07:56.576Z,101148.09
2023-04-26T20:10:23.111Z,101143.81
2023-04-26T20:12:50.767Z,101167.53
2023-04-26T20:15:18.008Z,101162.63
2023-04-26T20:17:44.507Z,101155.88
2023-04-26T20:20:12.051Z,101171.97
2023-04-26T20:22:41.868Z,101144.22
2023-04-26T20:25:08.886Z,101169.72
2023-04-26T20:27:35.418Z,101164.41
2023-04-26T20:30:02.637Z,101142.63
2023-04-26T20:32:29.155Z,101139.88
2023-04-26T20:34:56.326Z,101151.16
2023-04-26T20:37:22.925Z,101146.78
2023-04-26T20:39:53.351Z,101177.03
2023-04-26T20:42:20.131Z,101174.75
2023-04-26T20:44:46.711Z,101145.78
2023-04-26T20:47:13.650Z,101159.22
2023-04-26T20:49:40.158Z,101177.03
2023-04-26T20:52:06.921Z,101180.81
2023-04-26T20:54:33.858Z,101182.13
2023-04-26T20:57:00.598Z,101080.06
2023-04-26T20:59:27.147Z,101186.38
2023-04-26T21:01:53.828Z,101185.38
2023-04-26T21:04:20.756Z,101154.66
2023-04-26T21:06:47.640Z,101133.25
2023-04-26T21:09:14.270Z,101143.13
2023-04-26T21:11:40.824Z,101130.84
2023-04-26T21:14:07.665Z,101167.59
2023-04-26T21:16:34.100Z,101147.41
2023-04-26T21:19:00.675Z,101171.94
2023-04-26T21:21:28.634Z,101187.81
2023-04-26T21:23:55.218Z,101190.81
2023-04-26T21:26:21.759Z,101190.72
2023-04-26T21:28:48.554Z,101174.13
2023-04-26T21:31:15.786Z,101142.91
2023-04-26T21:33:42.306Z,101137.00
2023-04-26T21:36:09.124Z,101075.72
2023-04-26T21:38:35.919Z,101167.50
2023-04-26T21:41:02.706Z,101181.53
2023-04-26T21:43:29.240Z,101170.66
2023-04-26T21:45:58.892Z,101182.31
2023-04-26T21:48:26.432Z,101183.16
2023-04-26T21:50:53.429Z,101151.31
2023-04-26T21:53:20.270Z,101181.47
2023-04-26T21:55:53.952Z,101175.59
2023-04-26T21:58:21.365Z,101178.09
2023-04-26T22:00:48.540Z,101188.06
2023-04-26T22:03:15.231Z,101149.97
2023-04-26T22:05:42.307Z,101113.53
2023-04-26T22:08:08.818Z,101187.34
2023-04-26T22:10:36.753Z,101131.06
2023-04-26T22:13:03.314Z,101196.78
2023-04-26T22:15:30.038Z,101168.28
2023-04-26T22:17:56.695Z,101200.56
2023-04-26T22:20:23.283Z,101175.84
2023-04-26T22:22:49.850Z,101159.41
2023-04-26T22:25:16.370Z,101140.50
2023-04-26T22:27:42.877Z,101182.63
2023-04-26T22:30:22.916Z,101211.91
2023-04-26T22:32:54.539Z,101196.50
2023-04-26T22:35:22.524Z,101209.22
2023-04-26T22:37:49.256Z,101209.47
2023-04-26T22:40:16.376Z,101215.81
2023-04-26T22:42:43.677Z,101186.97
2023-04-26T22:45:11.531Z,101180.47
2023-04-26T22:47:38.451Z,101216.44
2023-04-26T22:50:05.977Z,101192.47
2023-04-26T22:52:32.720Z,101226.75
2023-04-26T22:54:59.993Z,101207.47
2023-04-26T22:57:27.678Z,101165.03
2023-04-26T22:59:54.202Z,101131.84
2023-04-26T23:02:21.069Z,101197.72
2023-04-26T23:04:47.911Z,101195.28
2023-04-26T23:07:14.456Z,101194.84
2023-04-26T23:09:41.225Z,101208.66
2023-04-26T23:12:07.964Z,101203.75
2023-04-26T23:14:34.982Z,101218.63
2023-04-26T23:17:02.736Z,101222.00
2023-04-26T23:19:29.361Z,101199.84
2023-04-26T23:21:56.408Z,101221.06
2023-04-26T23:24:22.956Z,101220.09
2023-04-26T23:26:49.676Z,101225.19
2023-04-26T23:29:16.172Z,101199.09
2023-04-26T23:31:42.998Z,101222.56
2023-04-26T23:34:09.591Z,101220.53
2023-04-26T23:36:36.105Z,101199.31
2023-04-26T23:39:02.730Z,101222.63
2023-04-26T23:41:29.702Z,101234.94
2023-04-26T23:43:56.201Z,101232.81
2023-04-26T23:46:22.868Z,101232.38
2023-04-26T23:48:49.568Z,101210.16
2023-04-26T23:51:16.320Z,101239.63
2023-04-26T23:53:45.914Z,101193.72
2023-04-26T23:56:13.513Z,101246.88
2023-04-26T23:58:40.038Z,101222.44
